Time;durP1;ratioP1;P1;durP2;ratioP2;P2;SDS_P1;SDS_P2;PMS_P1;PMS_P2;Temp;Humidity;BMP_temperature;BMP_pressure;BME280_temperature;BME280_humidity;BME280_pressure;Samples;Min_cycle;Max_cycle;Signal;HPM_P1;HPM_P2
2024/03/25 00:00:14;;;;;;;;;;;;;;;;;;5092856;28;19912;-79
2024/03/25 00:02:39;;;;;;;;;;;;;;;;;;5093455;28;19908;-79
2024/03/25 00:05:05;;;;;;;;;;;;;;;;;;5092601;28;19924;-82
2024/03/25 00:07:30;;;;;;;;;;;;;;;;;;5092645;28;19915;-79
2024/03/25 00:09:55;;;;;;;;;;;;;;;;;;5093018;28;19908;-80
2024/03/25 00:12:20;;;;;;;;;;;;;;;;;;5092374;28;19919;-82
2024/03/25 00:14:45;;;;;;;;;;;;;;;;;;5094388;28;20324;-82
2024/03/25 00:17:11;;;;;;;;;;;;;;;;;;5092777;28;19923;-81
2024/03/25 00:19:36;;;;;;;;;;;;;;;;;;5094443;28;20365;-80
2024/03/25 00:22:01;;;;;;;;;;;;;;;;;;5093872;28;19912;-81
2024/03/25 00:24:26;;;;;;;;;;;;;;;;;;5093351;28;19961;-80
2024/03/25 00:26:51;;;;;;;;;;;;;;;;;;5093276;28;19916;-82
2024/03/25 00:29:17;;;;;;;;;;;;;;;;;;5095277;28;20030;-81
2024/03/25 00:31:42;;;;;;;;;;;;;;;;;;5092905;28;20041;-81
2024/03/25 00:34:07;;;;;;;;;;;;;;;;;;5094753;28;19918;-81
2024/03/25 00:36:33;;;;;;;;;;;;;;;;;;5093458;28;19973;-80
2024/03/25 00:38:58;;;;;;;;;;;;;;;;;;5093549;28;19908;-81
2024/03/25 00:41:24;;;;;;;;;;;;;;;;;;5094102;28;19915;-82
2024/03/25 00:43:49;;;;;;;;;;;;;;;;;;5094218;28;20401;-78
2024/03/25 00:46:14;;;;;;;;;;;;;;;;;;5093053;28;19914;-82
2024/03/25 00:48:41;;;;;;;;;;;;;;;;;;5093757;28;20385;-82
2024/03/25 00:51:06;;;;;;;;;;;;;;;;;;5093371;28;19965;-80
2024/03/25 00:53:31;;;;;;;;;;;;;;;;;;5093899;28;19916;-80
2024/03/25 00:55:57;;;;;;;;;;;;;;;;;;5094751;28;19915;-80
2024/03/25 00:58:22;;;;;;;;;;;;;;;;;;5095188;28;19919;-80
2024/03/25 01:00:47;;;;;;;;;;;;;;;;;;5093974;28;19930;-80
2024/03/25 01:03:12;;;;;;;;;;;;;;;;;;5094151;28;19916;-79
2024/03/25 01:05:37;;;;;;;;;;;;;;;;;;5094462;28;19930;-80
2024/03/25 01:08:03;;;;;;;;;;;;;;;;;;5093280;28;19912;-81
2024/03/25 01:10:28;;;;;;;;;;;;;;;;;;5093440;28;19908;-81
2024/03/25 01:12:53;;;;;;;;;;;;;;;;;;5097196;28;19994;-81
2024/03/25 01:15:19;;;;;;;;;;;;;;;;;;5098590;28;19908;-81
2024/03/25 01:17:44;;;;;;;;;;;;;;;;;;5096368;28;19916;-79
2024/03/25 01:20:09;;;;;;;;;;;;;;;;;;5097375;28;19908;-81
2024/03/25 01:22:34;;;;;;;;;;;;;;;;;;5096399;28;19914;-79
2024/03/25 01:24:59;;;;;;;;;;;;;;;;;;5097467;28;19916;-80
2024/03/25 01:27:24;;;;;;;;;;;;;;;;;;5096122;28;19918;-80
2024/03/25 01:29:49;;;;;;;;;;;;;;;;;;5097301;28;19999;-81
2024/03/25 01:32:15;;;;;;;;;;;;;;;;;;5094992;28;19920;-79
2024/03/25 01:34:40;;;;;;;;;;;;;;;;;;5096994;28;19908;-81
2024/03/25 01:37:05;;;;;;;;;;;;;;;;;;5095526;28;19908;-80
2024/03/25 01:39:30;;;;;;;;;;;;;;;;;;5096752;28;19916;-80
2024/03/25 01:41:55;;;;;;;;;;;;;;;;;;5096741;28;19908;-80
2024/03/25 01:44:20;;;;;;;;;;;;;;;;;;5096818;28;19908;-81
2024/03/25 01:46:45;;;;;;;;;;;;;;;;;;5097190;28;19912;-80
2024/03/25 01:49:11;;;;;;;;;;;;;;;;;;5096866;28;19908;-81
2024/03/25 01:51:36;;;;;;;;;;;;;;;;;;5095782;28;19979;-81
2024/03/25 01:54:01;;;;;;;;;;;;;;;;;;5096080;28;19971;-81
2024/03/25 01:56:26;;;;;;;;;;;;;;;;;;5097489;28;19930;-80
2024/03/25 01:58:51;;;;;;;;;;;;;;;;;;5095848;28;20003;-81
2024/03/25 02:01:16;;;;;;;;;;;;;;;;;;5095948;28;19940;-79
2024/03/25 02:03:41;;;;;;;;;;;;;;;;;;5094632;28;19939;-79
2024/03/25 02:06:08;;;;;;;;;;;;;;;;;;5095565;28;19957;-80
2024/03/25 02:08:33;;;;;;;;;;;;;;;;;;5095842;28;19915;-80
2024/03/25 02:10:58;;;;;;;;;;;;;;;;;;5095301;28;19912;-80
2024/03/25 02:13:24;;;;;;;;;;;;;;;;;;5094656;28;19915;-80
2024/03/25 02:15:51;;;;;;;;;;;;;;;;;;5094660;28;19909;-80
2024/03/25 02:18:16;;;;;;;;;;;;;;;;;;5094660;28;19908;-80
2024/03/25 02:20:41;;;;;;;;;;;;;;;;;;5096786;28;20271;-80
2024/03/25 02:23:10;;;;;;;;;;;;;;;;;;5096087;28;19908;-80
2024/03/25 02:25:35;;;;;;;;;;;;;;;;;;5095534;28;19920;-81
2024/03/25 02:28:01;;;;;;;;;;;;;;;;;;5096064;28;19908;-81
2024/03/25 02:30:26;;;;;;;;;;;;;;;;;;5095548;28;19979;-80
2024/03/25 02:32:51;;;;;;;;;;;;;;;;;;5096065;28;19983;-80
2024/03/25 02:35:16;;;;;;;;;;;;;;;;;;5095129;28;19908;-81
2024/03/25 02:37:42;;;;;;;;;;;;;;;;;;5094715;28;19912;-80
2024/03/25 02:40:07;;;;;;;;;;;;;;;;;;5094591;28;19915;-80
2024/03/25 02:42:32;;;;;;;;;;;;;;;;;;5094386;28;19915;-81
2024/03/25 02:44:57;;;;;;;;;;;;;;;;;;5096060;28;20465;-80
2024/03/25 02:47:22;;;;;;;;;;;;;;;;;;5094715;28;20386;-81
2024/03/25 02:49:48;;;;;;;;;;;;;;;;;;5094620;28;19915;-79
2024/03/25 02:52:13;;;;;;;;;;;;;;;;;;5095376;28;19919;-81
2024/03/25 02:54:38;;;;;;;;;;;;;;;;;;5094858;28;19908;-80
2024/03/25 02:57:03;;;;;;;;;;;;;;;;;;5095931;28;19947;-81
2024/03/25 02:59:28;;;;;;;;;;;;;;;;;;5095544;28;19915;-79
2024/03/25 03:01:53;;;;;;;;;;;;;;;;;;5094405;28;19908;-79
2024/03/25 03:04:19;;;;;;;;;;;;;;;;;;5093388;28;19908;-80
2024/03/25 03:06:44;;;;;;;;;;;;;;;;;;5093470;28;19915;-77
2024/03/25 03:09:09;;;;;;;;;;;;;;;;;;5094779;28;20074;-80
2024/03/25 03:11:34;;;;;;;;;;;;;;;;;;5093679;28;20450;-80
2024/03/25 03:13:59;;;;;;;;;;;;;;;;;;5093233;28;19915;-80
2024/03/25 03:16:24;;;;;;;;;;;;;;;;;;5081465;28;20008;-79
2024/03/25 03:18:50;;;;;;;;;;;;;;;;;;5075279;28;19912;-79
2024/03/25 03:21:15;;;;;;;;;;;;;;;;;;5093645;28;19912;-79
2024/03/25 03:23:40;;;;;;;;;;;;;;;;;;5092206;28;19931;-80
2024/03/25 03:26:05;;;;;;;;;;;;;;;;;;5094755;28;20370;-79
2024/03/25 03:28:30;;;;;;;;;;;;;;;;;;5083351;28;19908;-80
2024/03/25 03:30:55;;;;;;;;;;;;;;;;;;5086471;28;19912;-79
2024/03/25 03:33:21;;;;;;;;;;;;;;;;;;5092338;28;19915;-80
2024/03/25 03:35:46;;;;;;;;;;;;;;;;;;5091554;28;19915;-79
2024/03/25 03:38:11;;;;;;;;;;;;;;;;;;5082926;28;20354;-81
2024/03/25 03:40:36;;;;;;;;;;;;;;;;;;5093446;28;19908;-81
2024/03/25 03:43:01;;;;;;;;;;;;;;;;;;5093496;28;19955;-81
2024/03/25 03:45:27;;;;;;;;;;;;;;;;;;5092711;28;19908;-81
2024/03/25 03:47:52;;;;;;;;;;;;;;;;;;5092093;28;19916;-80
2024/03/25 03:50:17;;;;;;;;;;;;;;;;;;5091828;28;20434;-79
2024/03/25 03:52:42;;;;;;;;;;;;;;;;;;5093279;28;20414;-79
2024/03/25 03:55:07;;;;;;;;;;;;;;;;;;5085523;28;19908;-79
2024/03/25 03:57:32;;;;;;;;;;;;;;;;;;5092255;28;19960;-79
2024/03/25 03:59:57;;;;;;;;;;;;;;;;;;5092431;28;19908;-79
2024/03/25 04:02:23;;;;;;;;;;;;;;;;;;5093248;28;19947;-79
2024/03/25 04:04:48;;;;;;;;;;;;;;;;;;5094002;28;19908;-78
2024/03/25 04:07:13;;;;;;;;;;;;;;;;;;5093660;28;19916;-80
2024/03/25 04:09:38;;;;;;;;;;;;;;;;;;5093912;28;19908;-79
2024/03/25 04:12:04;;;;;;;;;;;;;;;;;;5092219;28;20451;-81
2024/03/25 04:14:29;;;;;;;;;;;;;;;;;;5095116;28;19908;-80
2024/03/25 04:16:54;;;;;;;;;;;;;;;;;;5092902;28;19908;-81
2024/03/25 04:19:19;;;;;;;;;;;;;;;;;;5083261;28;19919;-80
2024/03/25 04:21:44;;;;;;;;;;;;;;;;;;5093405;28;19912;-79
2024/03/25 04:24:10;;;;;;;;;;;;;;;;;;5082930;28;19916;-81
2024/03/25 04:26:35;;;;;;;;;;;;;;;;;;5093310;28;19998;-81
2024/03/25 04:29:00;;;;;;;;;;;;;;;;;;5093768;28;19908;-81
2024/03/25 04:31:25;;;;;;;;;;;;;;;;;;5091746;28;19919;-81
2024/03/25 04:33:50;;;;;;;;;;;;;;;;;;5094284;28;19931;-81
2024/03/25 04:36:15;;;;;;;;;;;;;;;;;;5090627;28;19987;-81
2024/03/25 04:38:40;;;;;;;;;;;;;;;;;;5085565;28;20366;-81
2024/03/25 04:41:05;;;;;;;;;;;;;;;;;;5093693;28;19954;-80
2024/03/25 04:43:31;;;;;;;;;;;;;;;;;;5093865;28;19912;-80
2024/03/25 04:45:56;;;;;;;;;;;;;;;;;;5094152;28;19915;-79
2024/03/25 04:48:21;;;;;;;;;;;;;;;;;;5099570;28;19912;-80
2024/03/25 04:50:46;;;;;;;;;;;;;;;;;;5096912;28;19908;-79
2024/03/25 04:53:11;;;;;;;;;;;;;;;;;;5097559;28;19962;-80
2024/03/25 04:55:37;;;;;;;;;;;;;;;;;;5097170;28;19908;-79
2024/03/25 04:58:02;;;;;;;;;;;;;;;;;;5096816;28;19961;-80
2024/03/25 05:00:27;;;;;;;;;;;;;;;;;;5096245;28;19955;-80
2024/03/25 05:02:52;;;;;;;;;;;;;;;;;;5095138;28;19969;-80
2024/03/25 05:05:17;;;;;;;;;;;;;;;;;;5095913;28;19908;-79
2024/03/25 05:07:42;;;;;;;;;;;;;;;;;;5095451;28;19912;-80
2024/03/25 05:10:07;;;;;;;;;;;;;;;;;;5095568;28;19908;-79
2024/03/25 05:12:32;;;;;;;;;;;;;;;;;;5096946;28;20396;-79
2024/03/25 05:14:58;;;;;;;;;;;;;;;;;;5097081;28;20003;-81
2024/03/25 05:17:23;;;;;;;;;;;;;;;;;;5098381;28;20432;-80
2024/03/25 05:19:48;;;;;;;;;;;;;;;;;;5097997;28;20358;-81
2024/03/25 05:22:13;;;;;;;;;;;;;;;;;;5097323;28;20321;-80
2024/03/25 05:24:38;;;;;;;;;;;;;;;;;;5097600;28;19920;-81
2024/03/25 05:27:03;;;;;;;;;;;;;;;;;;5097426;28;19929;-79
2024/03/25 05:29:28;;;;;;;;;;;;;;;;;;5097635;28;19994;-81
2024/03/25 05:31:53;;;;;;;;;;;;;;;;;;5096574;28;20000;-80
2024/03/25 05:34:18;;;;;;;;;;;;;;;;;;5095746;28;19982;-81
2024/03/25 05:36:44;;;;;;;;;;;;;;;;;;5096626;28;19908;-79
2024/03/25 05:39:09;;;;;;;;;;;;;;;;;;5072720;28;19908;-79
2024/03/25 05:41:35;;;;;;;;;;;;;;;;;;5096924;28;19915;-79
2024/03/25 05:44:00;;;;;;;;;;;;;;;;;;5095446;28;19915;-80
2024/03/25 05:46:25;;;;;;;;;;;;;;;;;;5096852;28;19908;-80
2024/03/25 05:48:50;;;;;;;;;;;;;;;;;;5095367;28;19944;-79
2024/03/25 05:51:15;;;;;;;;;;;;;;;;;;5095302;28;19961;-79
2024/03/25 05:53:40;;;;;;;;;;;;;;;;;;5095454;28;19908;-79
2024/03/25 05:56:05;;;;;;;;;;;;;;;;;;5097047;28;19915;-81
2024/03/25 05:58:31;;;;;;;;;;;;;;;;;;5095784;28;19922;-81
2024/03/25 06:00:56;;;;;;;;;;;;;;;;;;5094561;28;19912;-81
2024/03/25 06:03:21;;;;;;;;;;;;;;;;;;5096773;28;19912;-80
2024/03/25 06:05:46;;;;;;;;;;;;;;;;;;5096324;28;19935;-81
2024/03/25 06:08:26;;;;;;;;;;;;;;;;;;5097429;28;19908;-79
2024/03/25 06:10:51;;;;;;;;;;;;;;;;;;5088871;28;19914;-81
2024/03/25 06:13:16;;;;;;;;;;;;;;;;;;5091898;28;19919;-81
2024/03/25 06:15:41;;;;;;;;;;;;;;;;;;5091448;28;19916;-81
2024/03/25 06:18:07;;;;;;;;;;;;;;;;;;5072238;28;19912;-81
2024/03/25 06:20:32;;;;;;;;;;;;;;;;;;5068672;28;19912;-81
2024/03/25 06:22:57;;;;;;;;;;;;;;;;;;5094407;28;20007;-81
2024/03/25 06:25:22;;;;;;;;;;;;;;;;;;5090033;28;19952;-80
2024/03/25 06:27:47;;;;;;;;;;;;;;;;;;5096120;28;19908;-81
2024/03/25 06:35:41;;;;;;;;;;;;;;;;;;5064129;28;19919;-80
2024/03/25 06:38:06;;;;;;;;;;;;;;;;;;5096175;28;19908;-80
2024/03/25 06:40:32;;;;;;;;;;;;;;;;;;5079343;28;20392;-82
2024/03/25 06:42:57;;;;;;;;;;;;;;;;;;5079954;28;19908;-84
2024/03/25 06:45:22;;;;;;;;;;;;;;;;;;5098211;28;19977;-81
2024/03/25 06:47:47;;;;;;;;;;;;;;;;;;5097407;28;19908;-80
2024/03/25 06:50:12;;;;;;;;;;;;;;;;;;5095076;28;19918;-79
2024/03/25 06:52:37;;;;;;;;;;;;;;;;;;5093268;28;19919;-80
2024/03/25 06:55:02;;;;;;;;;;;;;;;;;;5093194;28;20313;-78
2024/03/25 06:57:28;;;;;;;;;;;;;;;;;;5093405;28;20556;-79
2024/03/25 06:59:53;;;;;;;;;;;;;;;;;;5095562;28;19919;-79
2024/03/25 07:02:18;;;;;;;;;;;;;;;;;;5094238;28;19908;-79
2024/03/25 07:04:43;;;;;;;;;;;;;;;;;;5092524;28;19923;-80
2024/03/25 07:07:09;;;;;;;;;;;;;;;;;;5096806;28;20282;-80
2024/03/25 07:09:34;;;;;;;;;;;;;;;;;;5094657;28;20293;-80
2024/03/25 07:11:59;;;;;;;;;;;;;;;;;;5095822;28;19912;-82
2024/03/25 07:14:25;;;;;;;;;;;;;;;;;;5096048;28;19987;-82
2024/03/25 07:16:52;;;;;;;;;;;;;;;;;;5095578;28;20980;-82
2024/03/25 07:19:17;;;;;;;;;;;;;;;;;;5096442;28;19916;-83
2024/03/25 07:21:42;;;;;;;;;;;;;;;;;;5096682;28;19912;-81
2024/03/25 07:24:07;;;;;;;;;;;;;;;;;;5095218;28;20239;-81
2024/03/25 07:26:33;;;;;;;;;;;;;;;;;;5097041;28;19912;-82
2024/03/25 07:28:58;;;;;;;;;;;;;;;;;;5096463;28;19915;-80
2024/03/25 07:31:23;;;;;;;;;;;;;;;;;;5095422;28;20275;-82
2024/03/25 07:33:48;;;;;;;;;;;;;;;;;;5095271;28;20373;-82
2024/03/25 07:36:14;;;;;;;;;;;;;;;;;;5096434;28;19977;-82
2024/03/25 07:38:39;;;;;;;;;;;;;;;;;;5095712;28;20362;-81
2024/03/25 07:41:04;;;;;;;;;;;;;;;;;;5092506;28;19916;-81
2024/03/25 07:43:29;;;;;;;;;;;;;;;;;;5093256;28;19908;-80
2024/03/25 07:45:54;;;;;;;;;;;;;;;;;;5085301;28;19919;-80
2024/03/25 07:48:20;;;;;;;;;;;;;;;;;;5073759;28;19912;-80
2024/03/25 07:50:45;;;;;;;;;;;;;;;;;;5071540;28;19919;-80
2024/03/25 07:53:10;;;;;;;;;;;;;;;;;;5072550;28;19935;-81
2024/03/25 07:55:35;;;;;;;;;;;;;;;;;;5075921;28;19912;-79
2024/03/25 07:58:00;;;;;;;;;;;;;;;;;;5074436;28;19923;-80
2024/03/25 08:00:26;;;;;;;;;;;;;;;;;;5084852;28;19916;-80
2024/03/25 08:02:51;;;;;;;;;;;;;;;;;;5085732;28;19916;-82
2024/03/25 08:05:16;;;;;;;;;;;;;;;;;;5090440;28;19916;-81
2024/03/25 08:07:41;;;;;;;;;;;;;;;;;;5086954;28;19911;-82
2024/03/25 08:10:06;;;;;;;;;;;;;;;;;;5079574;28;20405;-82
2024/03/25 08:12:31;;;;;;;;;;;;;;;;;;5090509;28;20290;-79
2024/03/25 08:14:56;;;;;;;;;;;;;;;;;;5073466;28;20555;-81
2024/03/25 08:17:21;;;;;;;;;;;;;;;;;;5073408;28;19916;-80
2024/03/25 08:19:47;;;;;;;;;;;;;;;;;;5089601;28;19931;-82
2024/03/25 08:22:12;;;;;;;;;;;;;;;;;;5087499;28;19912;-80
2024/03/25 08:24:37;;;;;;;;;;;;;;;;;;5090215;28;19907;-80
2024/03/25 08:27:03;;;;;;;;;;;;;;;;;;5091032;28;20293;-82
2024/03/25 08:29:28;;;;;;;;;;;;;;;;;;5072816;28;20386;-83
2024/03/25 08:31:53;;;;;;;;;;;;;;;;;;5072622;28;19920;-78
2024/03/25 08:34:18;;;;;;;;;;;;;;;;;;5076938;28;19973;-81
2024/03/25 08:36:43;;;;;;;;;;;;;;;;;;5095543;28;20398;-82
2024/03/25 08:39:08;;;;;;;;;;;;;;;;;;5094980;28;19912;-84
2024/03/25 08:41:34;;;;;;;;;;;;;;;;;;5080165;28;19913;-80
2024/03/25 08:43:59;;;;;;;;;;;;;;;;;;5087634;28;20327;-81
2024/03/25 08:46:24;;;;;;;;;;;;;;;;;;5091155;28;20015;-85
2024/03/25 08:48:49;;;;;;;;;;;;;;;;;;5076380;28;19919;-86
2024/03/25 08:51:14;;;;;;;;;;;;;;;;;;5090743;28;19924;-82
2024/03/25 08:53:39;;;;;;;;;;;;;;;;;;5094821;28;19994;-81
2024/03/25 08:56:04;;;;;;;;;;;;;;;;;;5092316;28;20006;-82
2024/03/25 08:58:30;;;;;;;;;;;;;;;;;;5092278;28;19957;-82
2024/03/25 09:00:55;;;;;;;;;;;;;;;;;;5087063;28;19912;-82
2024/03/25 09:03:20;;;;;;;;;;;;;;;;;;5072843;28;19916;-80
2024/03/25 09:05:45;;;;;;;;;;;;;;;;;;5075367;28;19916;-80
2024/03/25 09:08:11;;;;;;;;;;;;;;;;;;5076901;28;19934;-82
2024/03/25 09:13:20;;;;;;;;;;;;;;;;;;5094946;28;19935;-82
2024/03/25 09:15:45;;;;;;;;;;;;;;;;;;5095232;28;19909;-82
2024/03/25 09:18:10;;;;;;;;;;;;;;;;;;5095048;28;19908;-83
2024/03/25 09:20:35;;;;;;;;;;;;;;;;;;5093642;28;19915;-82
2024/03/25 09:23:01;;;;;;;;;;;;;;;;;;5094775;28;19908;-81
2024/03/25 09:25:26;;;;;;;;;;;;;;;;;;5095031;28;19923;-81
2024/03/25 09:27:51;;;;;;;;;;;;;;;;;;5093450;28;19908;-81
2024/03/25 09:30:17;;;;;;;;;;;;;;;;;;5094371;28;19946;-82
2024/03/25 09:32:42;;;;;;;;;;;;;;;;;;5094803;28;20429;-80
2024/03/25 09:35:07;;;;;;;;;;;;;;;;;;5098762;28;20370;-80
2024/03/25 09:37:32;;;;;;;;;;;;;;;;;;5097085;28;20479;-80
2024/03/25 09:39:58;;;;;;;;;;;;;;;;;;5098282;28;20273;-83
2024/03/25 09:42:23;;;;;;;;;;;;;;;;;;5097950;28;19908;-80
2024/03/25 09:44:48;;;;;;;;;;;;;;;;;;5096091;28;19913;-82
2024/03/25 09:47:14;;;;;;;;;;;;;;;;;;5097953;28;20389;-80
2024/03/25 09:49:39;;;;;;;;;;;;;;;;;;5084033;28;19912;-82
2024/03/25 09:52:04;;;;;;;;;;;;;;;;;;5097679;28;19919;-82
2024/03/25 09:54:29;;;;;;;;;;;;;;;;;;5099064;28;20003;-82
2024/03/25 09:56:54;;;;;;;;;;;;;;;;;;5079797;28;20003;-82
2024/03/25 09:59:19;;;;;;;;;;;;;;;;;;5086380;28;19917;-79
2024/03/25 10:01:44;;;;;;;;;;;;;;;;;;5097791;28;19916;-81
2024/03/25 10:04:10;;;;;;;;;;;;;;;;;;5087947;28;19912;-81
2024/03/25 10:06:35;;;;;;;;;;;;;;;;;;5097479;28;20007;-82
2024/03/25 10:09:01;;;;;;;;;;;;;;;;;;5098022;28;19912;-80
2024/03/25 10:11:28;;;;;;;;;;;;;;;;;;5078761;28;20301;-82
2024/03/25 10:13:53;;;;;;;;;;;;;;;;;;5078372;28;19923;-81
2024/03/25 10:16:18;;;;;;;;;;;;;;;;;;5097009;28;19912;-80
2024/03/25 10:18:43;;;;;;;;;;;;;;;;;;5096634;28;19916;-82
2024/03/25 10:21:08;;;;;;;;;;;;;;;;;;5096504;28;19914;-79
2024/03/25 10:23:36;;;;;;;;;;;;;;;;;;5096526;28;20341;-80
2024/03/25 10:26:01;;;;;;;;;;;;;;;;;;5096536;28;20006;-80
2024/03/25 10:28:28;;;;;;;;;;;;;;;;;;5093394;28;20420;-80
2024/03/25 10:30:53;;;;;;;;;;;;;;;;;;5094855;28;19939;-81
2024/03/25 10:33:18;;;;;;;;;;;;;;;;;;5094109;28;19944;-80
2024/03/25 10:35:43;;;;;;;;;;;;;;;;;;5094200;28;19920;-81
2024/03/25 10:38:10;;;;;;;;;;;;;;;;;;5094354;28;20102;-80
2024/03/25 10:40:36;;;;;;;;;;;;;;;;;;5095244;28;19908;-80
2024/03/25 10:43:02;;;;;;;;;;;;;;;;;;5093718;28;19915;-82
2024/03/25 10:45:28;;;;;;;;;;;;;;;;;;5094928;28;19912;-80
2024/03/25 10:47:53;;;;;;;;;;;;;;;;;;5094979;28;19912;-82
2024/03/25 10:50:18;;;;;;;;;;;;;;;;;;5094785;28;19912;-80
2024/03/25 10:52:43;;;;;;;;;;;;;;;;;;5094962;28;19997;-80
2024/03/25 10:55:09;;;;;;;;;;;;;;;;;;5094208;28;19908;-80
2024/03/25 10:57:34;;;;;;;;;;;;;;;;;;5081988;28;19908;-79
2024/03/25 10:59:59;;;;;;;;;;;;;;;;;;5095176;28;19912;-80
2024/03/25 11:02:24;;;;;;;;;;;;;;;;;;5095525;28;20382;-82
2024/03/25 11:04:51;;;;;;;;;;;;;;;;;;5090132;28;19908;-82
2024/03/25 11:07:16;;;;;;;;;;;;;;;;;;5095689;28;19908;-81
2024/03/25 11:09:42;;;;;;;;;;;;;;;;;;5095997;28;20286;-82
2024/03/25 11:12:07;;;;;;;;;;;;;;;;;;5095803;28;20368;-82
2024/03/25 11:14:34;;;;;;;;;;;;;;;;;;5093664;28;19923;-81
2024/03/25 11:16:59;;;;;;;;;;;;;;;;;;5084631;28;19995;-80
2024/03/25 11:19:24;;;;;;;;;;;;;;;;;;5092518;28;19959;-82
2024/03/25 11:21:49;;;;;;;;;;;;;;;;;;5092845;28;19908;-80
2024/03/25 11:24:15;;;;;;;;;;;;;;;;;;5093610;28;19923;-79
2024/03/25 11:26:40;;;;;;;;;;;;;;;;;;5093266;28;19909;-80
2024/03/25 11:29:05;;;;;;;;;;;;;;;;;;5093869;28;19916;-81
2024/03/25 11:31:30;;;;;;;;;;;;;;;;;;5092528;28;19961;-81
2024/03/25 11:33:57;;;;;;;;;;;;;;;;;;5092913;28;20003;-81
2024/03/25 11:36:25;;;;;;;;;;;;;;;;;;5093078;28;19909;-82
2024/03/25 11:38:51;;;;;;;;;;;;;;;;;;5093289;28;20313;-82
2024/03/25 11:41:16;;;;;;;;;;;;;;;;;;5092663;28;19915;-79
2024/03/25 11:43:41;;;;;;;;;;;;;;;;;;5092938;28;19908;-80
2024/03/25 11:46:06;;;;;;;;;;;;;;;;;;5094681;28;19916;-80
2024/03/25 11:48:32;;;;;;;;;;;;;;;;;;5093520;28;19908;-80
2024/03/25 11:50:57;;;;;;;;;;;;;;;;;;5094836;28;20382;-80
2024/03/25 11:53:22;;;;;;;;;;;;;;;;;;5094730;28;20435;-80
2024/03/25 11:55:47;;;;;;;;;;;;;;;;;;5095018;28;19969;-82
2024/03/25 11:58:12;;;;;;;;;;;;;;;;;;5096627;28;20389;-82
2024/03/25 12:00:38;;;;;;;;;;;;;;;;;;5095582;28;19968;-82
2024/03/25 12:03:03;;;;;;;;;;;;;;;;;;5094411;28;20387;-82
2024/03/25 12:05:28;;;;;;;;;;;;;;;;;;5095574;28;19915;-82
2024/03/25 12:07:53;;;;;;;;;;;;;;;;;;5093523;28;19912;-81
2024/03/25 12:13:02;;;;;;;;;;;;;;;;;;5095421;28;19920;-82
2024/03/25 12:15:27;;;;;;;;;;;;;;;;;;5094286;28;19908;-81
2024/03/25 12:17:52;;;;;;;;;;;;;;;;;;5096106;28;19908;-80
2024/03/25 12:20:17;;;;;;;;;;;;;;;;;;5095003;28;19961;-82
2024/03/25 12:22:42;;;;;;;;;;;;;;;;;;5094267;28;19908;-82
2024/03/25 12:25:08;;;;;;;;;;;;;;;;;;5081441;28;19976;-81
2024/03/25 12:27:33;;;;;;;;;;;;;;;;;;5086902;28;19954;-81
2024/03/25 12:29:58;;;;;;;;;;;;;;;;;;5086929;28;19998;-82
2024/03/25 12:32:23;;;;;;;;;;;;;;;;;;5091785;28;20458;-80
2024/03/25 12:34:48;;;;;;;;;;;;;;;;;;5090858;28;19919;-81
2024/03/25 12:37:14;;;;;;;;;;;;;;;;;;5086950;28;20010;-80
2024/03/25 12:39:39;;;;;;;;;;;;;;;;;;5082772;28;20351;-80
2024/03/25 12:42:04;;;;;;;;;;;;;;;;;;5082542;28;20459;-81
2024/03/25 12:44:29;;;;;;;;;;;;;;;;;;5078387;28;20340;-82
2024/03/25 12:46:57;;;;;;;;;;;;;;;;;;5085936;28;19916;-80
2024/03/25 12:49:23;;;;;;;;;;;;;;;;;;5085719;28;20109;-81
2024/03/25 12:51:48;;;;;;;;;;;;;;;;;;5076590;28;19928;-82
2024/03/25 12:54:13;;;;;;;;;;;;;;;;;;5084219;28;19916;-82
2024/03/25 12:56:38;;;;;;;;;;;;;;;;;;5088455;28;19927;-82
2024/03/25 12:59:03;;;;;;;;;;;;;;;;;;5088295;28;19909;-82
2024/03/25 13:01:28;;;;;;;;;;;;;;;;;;5090880;28;19973;-82
2024/03/25 13:03:53;;;;;;;;;;;;;;;;;;5077248;28;19917;-82
2024/03/25 13:06:18;;;;;;;;;;;;;;;;;;5077132;28;19913;-80
2024/03/25 13:08:43;;;;;;;;;;;;;;;;;;5083053;28;19912;-81
2024/03/25 13:11:09;;;;;;;;;;;;;;;;;;5072574;28;19919;-83
2024/03/25 13:13:34;;;;;;;;;;;;;;;;;;5070037;28;19913;-81
2024/03/25 13:15:59;;;;;;;;;;;;;;;;;;5074017;28;19912;-80
2024/03/25 13:18:24;;;;;;;;;;;;;;;;;;5072839;28;19999;-80
2024/03/25 13:20:49;;;;;;;;;;;;;;;;;;5090447;28;19962;-81
2024/03/25 13:23:15;;;;;;;;;;;;;;;;;;5085196;28;19916;-82
2024/03/25 13:25:40;;;;;;;;;;;;;;;;;;5074493;28;19932;-80
2024/03/25 13:28:05;;;;;;;;;;;;;;;;;;5070709;28;19920;-82
2024/03/25 13:30:30;;;;;;;;;;;;;;;;;;5076164;28;19913;-80
2024/03/25 13:32:55;;;;;;;;;;;;;;;;;;5076943;28;19916;-81
2024/03/25 13:35:20;;;;;;;;;;;;;;;;;;5083245;28;19919;-80
2024/03/25 13:37:45;;;;;;;;;;;;;;;;;;5075918;28;19978;-79
2024/03/25 13:40:14;;;;;;;;;;;;;;;;;;5069178;28;19912;-82
2024/03/25 13:42:39;;;;;;;;;;;;;;;;;;5069958;28;19920;-81
2024/03/25 13:45:05;;;;;;;;;;;;;;;;;;5080368;28;19928;-80
2024/03/25 13:47:30;;;;;;;;;;;;;;;;;;5086646;28;19966;-82
2024/03/25 13:49:55;;;;;;;;;;;;;;;;;;5093784;28;19922;-81
2024/03/25 13:52:20;;;;;;;;;;;;;;;;;;5074017;28;19916;-81
2024/03/25 13:54:45;;;;;;;;;;;;;;;;;;5074116;28;19916;-82
2024/03/25 13:57:11;;;;;;;;;;;;;;;;;;5072635;28;19938;-81
2024/03/25 13:59:36;;;;;;;;;;;;;;;;;;5073989;28;19920;-82
2024/03/25 14:02:01;;;;;;;;;;;;;;;;;;5078305;28;19912;-83
2024/03/25 14:04:27;;;;;;;;;;;;;;;;;;5084200;28;19919;-82
2024/03/25 14:06:52;;;;;;;;;;;;;;;;;;5083858;28;19908;-81
2024/03/25 14:09:18;;;;;;;;;;;;;;;;;;5097110;28;19915;-82
2024/03/25 14:11:43;;;;;;;;;;;;;;;;;;5088356;28;20289;-82
2024/03/25 14:14:08;;;;;;;;;;;;;;;;;;5072856;28;20238;-82
2024/03/25 14:16:33;;;;;;;;;;;;;;;;;;5090795;28;19923;-80
2024/03/25 14:18:59;;;;;;;;;;;;;;;;;;5086927;28;19908;-82
2024/03/25 14:21:24;;;;;;;;;;;;;;;;;;5092071;28;19995;-81
2024/03/25 14:23:49;;;;;;;;;;;;;;;;;;5092762;28;19955;-81
2024/03/25 14:26:14;;;;;;;;;;;;;;;;;;5084794;28;19918;-81
2024/03/25 14:28:39;;;;;;;;;;;;;;;;;;5096546;28;19908;-82
2024/03/25 14:31:05;;;;;;;;;;;;;;;;;;5096603;28;19912;-81
2024/03/25 14:33:30;;;;;;;;;;;;;;;;;;5096154;28;19924;-82
2024/03/25 14:35:55;;;;;;;;;;;;;;;;;;5093713;28;20301;-81
2024/03/25 14:38:20;;;;;;;;;;;;;;;;;;5089986;28;20259;-82
2024/03/25 14:40:45;;;;;;;;;;;;;;;;;;5092886;28;20289;-80
2024/03/25 14:43:11;;;;;;;;;;;;;;;;;;5094504;28;19919;-80
2024/03/25 14:45:36;;;;;;;;;;;;;;;;;;5093320;28;19916;-80
2024/03/25 14:48:01;;;;;;;;;;;;;;;;;;5090043;28;19914;-80
2024/03/25 14:50:26;;;;;;;;;;;;;;;;;;5084731;28;20381;-81
2024/03/25 14:52:51;;;;;;;;;;;;;;;;;;5085969;28;20374;-80
2024/03/25 14:55:16;;;;;;;;;;;;;;;;;;5094486;28;19947;-81
2024/03/25 14:57:41;;;;;;;;;;;;;;;;;;5093353;28;19908;-82
2024/03/25 15:00:06;;;;;;;;;;;;;;;;;;5094531;28;20298;-82
2024/03/25 15:02:32;;;;;;;;;;;;;;;;;;5084077;28;19935;-81
2024/03/25 15:04:57;;;;;;;;;;;;;;;;;;5071421;28;20294;-82
2024/03/25 15:07:22;;;;;;;;;;;;;;;;;;5078244;28;19935;-82
2024/03/25 15:09:47;;;;;;;;;;;;;;;;;;5074606;28;19912;-81
2024/03/25 15:12:12;;;;;;;;;;;;;;;;;;5081007;28;19961;-81
2024/03/25 15:14:37;;;;;;;;;;;;;;;;;;5085182;28;19999;-82
2024/03/25 15:17:02;;;;;;;;;;;;;;;;;;5095274;28;19943;-81
2024/03/25 15:19:27;;;;;;;;;;;;;;;;;;5090694;28;19953;-82
2024/03/25 15:21:52;;;;;;;;;;;;;;;;;;5091910;28;19908;-82
2024/03/25 15:24:17;;;;;;;;;;;;;;;;;;5093568;28;19916;-83
2024/03/25 15:26:43;;;;;;;;;;;;;;;;;;5092920;28;19914;-83
2024/03/25 15:29:08;;;;;;;;;;;;;;;;;;5092989;28;19914;-81
2024/03/25 15:31:33;;;;;;;;;;;;;;;;;;5092675;28;19919;-81
2024/03/25 15:33:59;;;;;;;;;;;;;;;;;;5090005;28;19909;-81
2024/03/25 15:36:26;;;;;;;;;;;;;;;;;;5088666;28;19908;-82
2024/03/25 15:38:51;;;;;;;;;;;;;;;;;;5094898;28;20049;-81
2024/03/25 15:41:16;;;;;;;;;;;;;;;;;;5094624;28;19932;-83
2024/03/25 15:43:41;;;;;;;;;;;;;;;;;;5092944;28;19953;-82
2024/03/25 15:46:07;;;;;;;;;;;;;;;;;;5096545;28;19978;-83
2024/03/25 15:48:32;;;;;;;;;;;;;;;;;;5096770;28;19908;-82
2024/03/25 15:50:57;;;;;;;;;;;;;;;;;;5094961;28;19912;-83
2024/03/25 15:53:22;;;;;;;;;;;;;;;;;;5094475;28;19965;-83
2024/03/25 15:55:47;;;;;;;;;;;;;;;;;;5096139;28;19916;-83
2024/03/25 15:58:12;;;;;;;;;;;;;;;;;;5094228;28;19912;-81
2024/03/25 16:00:37;;;;;;;;;;;;;;;;;;5093539;28;20278;-81
2024/03/25 16:03:02;;;;;;;;;;;;;;;;;;5089503;28;20314;-82
2024/03/25 16:05:28;;;;;;;;;;;;;;;;;;5081877;28;19908;-82
2024/03/25 16:07:53;;;;;;;;;;;;;;;;;;5093604;28;20430;-82
2024/03/25 16:10:18;;;;;;;;;;;;;;;;;;5091493;28;19976;-82
2024/03/25 16:12:45;;;;;;;;;;;;;;;;;;5086905;28;19918;-82
2024/03/25 16:15:10;;;;;;;;;;;;;;;;;;5076886;28;19966;-83
2024/03/25 16:17:35;;;;;;;;;;;;;;;;;;5095504;28;19912;-82
2024/03/25 16:20:00;;;;;;;;;;;;;;;;;;5094222;28;19999;-82
2024/03/25 16:22:25;;;;;;;;;;;;;;;;;;5093271;28;19991;-82
2024/03/25 16:24:50;;;;;;;;;;;;;;;;;;5094438;28;20345;-82
2024/03/25 16:27:16;;;;;;;;;;;;;;;;;;5095097;28;19909;-83
2024/03/25 16:29:41;;;;;;;;;;;;;;;;;;5093510;28;19912;-83
2024/03/25 16:32:06;;;;;;;;;;;;;;;;;;5092589;28;19955;-83
2024/03/25 16:34:31;;;;;;;;;;;;;;;;;;5093998;28;19908;-82
2024/03/25 16:36:57;;;;;;;;;;;;;;;;;;5093597;28;19908;-82
2024/03/25 16:39:22;;;;;;;;;;;;;;;;;;5092763;28;19908;-83
2024/03/25 16:41:47;;;;;;;;;;;;;;;;;;5094471;28;19915;-82